createdAt,value
2023-01-21T07:33:14.528Z,2.07
2023-01-21T07:35:46.527Z,1.86
2023-01-21T07:38:25.750Z,1.87
2023-01-21T07:40:56.816Z,1.79
2023-01-21T07:43:37.382Z,2.10
2023-01-21T07:46:09.623Z,1.96
2023-01-21T07:48:58.023Z,2.15
2023-01-21T07:52:25.240Z,1.85
2023-01-21T08:27:18.001Z,2.28
2023-01-21T08:29:47.283Z,2.48
2023-01-21T08:32:15.089Z,2.21
2023-01-21T08:34:43.648Z,2.30
2023-01-21T08:37:12.437Z,2.21
2023-01-21T08:39:40.716Z,2.32
2023-01-21T08:42:08.534Z,2.42
2023-01-21T08:44:38.411Z,2.57
2023-01-21T08:47:06.196Z,2.41
2023-01-21T08:49:34.027Z,2.42
2023-01-21T08:52:02.096Z,2.46
2023-01-21T08:54:29.855Z,2.27
2023-01-21T08:56:57.592Z,2.41
2023-01-21T09:02:22.094Z,2.59
2023-01-21T09:04:51.158Z,2.84
2023-01-21T09:07:18.998Z,2.66
2023-01-21T09:09:48.710Z,2.92
2023-01-21T09:12:18.012Z,2.95
2023-01-21T09:14:45.874Z,2.68
2023-01-21T09:17:13.606Z,3.04
2023-01-21T09:19:42.843Z,3.07
2023-01-21T09:22:11.024Z,3.14
2023-01-21T09:24:38.758Z,3.10
2023-01-21T09:27:07.528Z,3.20
2023-01-21T09:29:35.883Z,3.09
2023-01-21T09:32:05.404Z,3.30
2023-01-21T09:34:35.597Z,3.25
2023-01-21T09:37:05.513Z,3.28
2023-01-21T09:39:33.515Z,3.24
2023-01-21T09:42:01.286Z,3.14
2023-01-21T11:06:53.847Z,3.67
2023-01-21T11:09:24.678Z,3.49
2023-01-21T11:11:52.536Z,3.59
2023-01-21T11:14:21.341Z,3.52
2023-01-21T11:16:51.201Z,3.64
2023-01-21T11:19:24.453Z,3.52
2023-01-21T11:22:01.966Z,3.34
2023-01-21T11:24:30.837Z,3.37
2023-01-21T11:27:00.870Z,3.19
2023-01-21T11:29:41.483Z,3.29
2023-01-21T11:32:19.303Z,3.43
2023-01-21T11:34:48.945Z,3.45
2023-01-21T11:37:25.662Z,3.37
2023-01-21T11:39:57.583Z,3.30
2023-01-21T11:42:26.002Z,3.54
2023-01-21T11:44:55.747Z,3.46
2023-01-21T11:47:36.660Z,3.76
2023-01-21T11:50:13.891Z,3.53
2023-01-21T11:52:43.893Z,3.81
2023-01-21T11:55:24.477Z,3.76
2023-01-21T11:57:55.164Z,3.63
2023-01-21T12:00:25.625Z,3.59
2023-01-21T12:02:58.200Z,3.47
2023-01-21T12:05:33.659Z,3.56
2023-01-21T12:08:05.706Z,3.58
2023-01-21T12:10:36.821Z,3.52
2023-01-21T12:13:16.983Z,3.55
2023-01-21T12:16:07.972Z,3.55
2023-01-21T12:18:54.740Z,3.72
2023-01-21T12:21:38.100Z,3.69
2023-01-21T12:24:22.758Z,3.14
2023-01-21T12:26:57.354Z,3.14
2023-01-21T12:29:38.206Z,3.28
2023-01-21T12:32:12.886Z,3.60
2023-01-21T12:34:46.146Z,3.40
2023-01-21T12:37:20.286Z,3.55
2023-01-21T12:39:53.261Z,3.60
2023-01-21T12:42:25.285Z,3.66
2023-01-21T12:44:57.880Z,3.33
2023-01-21T12:47:33.615Z,3.60
2023-01-21T12:50:12.421Z,3.54
2023-01-21T12:52:49.199Z,3.85
2023-01-21T12:55:22.604Z,3.72
2023-01-21T12:57:57.673Z,3.68
2023-01-21T13:00:27.012Z,3.64
2023-01-21T13:03:10.808Z,3.40
2023-01-21T13:05:44.759Z,3.32
2023-01-21T13:08:42.415Z,3.61
2023-01-21T13:11:21.114Z,3.58
2023-01-21T13:13:56.315Z,3.60
2023-01-21T13:16:26.724Z,3.82
2023-01-21T13:18:56.564Z,3.54
2023-01-21T13:21:36.850Z,3.69
2023-01-21T13:24:16.828Z,3.54
2023-01-21T13:26:54.507Z,3.24
2023-01-21T13:29:33.050Z,3.68
2023-01-21T13:35:27.211Z,3.53
2023-01-21T13:38:02.605Z,3.40
2023-01-21T13:40:42.112Z,3.34
2023-01-21T13:43:27.616Z,3.22
2023-01-21T13:46:02.861Z,3.50
2023-01-21T13:48:49.943Z,3.29
2023-01-21T13:51:35.196Z,3.18
2023-01-21T13:54:39.383Z,2.81
2023-01-21T13:57:26.132Z,2.96
2023-01-21T13:59:58.879Z,2.99
2023-01-21T14:02:33.153Z,3.12
2023-01-21T14:05:07.489Z,3.07
2023-01-21T14:07:41.899Z,3.05
2023-01-21T14:10:16.985Z,3.15
2023-01-21T14:13:06.900Z,3.17
2023-01-21T14:15:53.378Z,3.10
2023-01-21T14:18:54.187Z,3.40
2023-01-21T14:21:42.948Z,3.38
2023-01-21T14:24:24.314Z,3.42
2023-01-21T14:27:15.008Z,3.43
2023-01-21T14:29:47.041Z,3.46
2023-01-21T14:32:22.875Z,3.40
2023-01-21T14:35:05.343Z,3.58
2023-01-21T14:37:39.496Z,3.66
2023-01-21T14:40:17.270Z,3.58
2023-01-21T14:42:49.212Z,3.72
2023-01-21T14:45:20.587Z,3.75
2023-01-21T14:47:51.887Z,3.56
2023-01-21T14:50:46.772Z,3.81
2023-01-21T14:53:20.696Z,3.85
2023-01-21T14:56:07.934Z,3.69
2023-01-21T14:58:37.630Z,3.82
2023-01-21T15:01:08.118Z,3.62
2023-01-21T15:03:49.987Z,3.58
2023-01-21T15:06:23.387Z,3.64
2023-01-21T15:08:53.597Z,3.55
2023-01-21T15:11:24.331Z,3.59
2023-01-21T15:14:07.285Z,3.53
2023-01-21T15:16:38.368Z,3.73
2023-01-21T15:19:23.056Z,3.56
2023-01-21T15:22:21.514Z,3.72
2023-01-21T15:25:20.502Z,3.56
2023-01-21T15:28:38.740Z,3.57
2023-01-21T15:31:09.950Z,3.60
2023-01-21T15:33:43.548Z,3.42
2023-01-21T15:36:24.470Z,3.36
2023-01-21T15:38:55.853Z,3.28
2023-01-21T15:41:28.035Z,3.22
2023-01-21T15:44:10.587Z,3.29
2023-01-21T15:46:46.904Z,3.31
2023-01-21T15:52:34.878Z,3.44
2023-01-21T15:55:18.252Z,3.49
2023-01-21T15:57:55.081Z,3.24
2023-01-21T16:00:35.320Z,3.38
2023-01-21T16:03:13.231Z,3.48
2023-01-21T16:05:50.644Z,3.40
2023-01-21T16:08:30.645Z,3.45
2023-01-21T16:11:26.812Z,3.35
2023-01-21T16:14:00.937Z,3.45
2023-01-21T16:16:45.174Z,3.49
2023-01-21T16:19:16.642Z,3.51
2023-01-21T16:21:48.207Z,3.48
2023-01-21T16:24:20.341Z,3.29
2023-01-21T16:26:48.328Z,3.29
2023-01-21T16:29:16.809Z,3.30
2023-01-21T16:31:51.158Z,3.44
2023-01-21T16:34:39.873Z,3.42
2023-01-21T16:37:09.180Z,3.37
2023-01-21T16:39:38.692Z,3.28
2023-01-21T16:44:37.167Z,3.31
2023-01-21T16:47:05.232Z,3.36
2023-01-21T16:49:34.982Z,3.34
2023-01-21T16:52:04.465Z,3.33
2023-01-21T16:54:33.356Z,3.29
2023-01-21T16:57:04.797Z,3.29
2023-01-21T16:59:40.504Z,3.30
2023-01-21T17:02:19.653Z,3.23
2023-01-21T17:04:47.551Z,3.11
2023-01-21T17:07:17.001Z,3.29
2023-01-21T17:09:45.244Z,3.32
2023-01-21T17:12:23.808Z,3.37
2023-01-21T17:14:57.498Z,3.37
2023-01-21T17:17:28.211Z,3.41
2023-01-21T17:19:56.121Z,3.33
2023-01-21T17:22:27.774Z,3.31
2023-01-21T17:25:08.883Z,3.39
2023-01-21T17:27:43.878Z,3.34
2023-01-21T17:30:30.413Z,3.29
2023-01-21T17:33:00.104Z,3.35
2023-01-21T17:35:29.621Z,3.30
2023-01-21T17:37:59.030Z,3.30
2023-01-21T17:40:30.260Z,3.27
2023-01-21T17:43:01.421Z,2.75
2023-01-21T17:45:33.002Z,3.20
2023-01-21T17:48:12.519Z,3.06
2023-01-21T17:50:47.509Z,3.11
2023-01-21T17:53:23.371Z,3.16
2023-01-21T17:56:00.867Z,3.14
2023-01-21T17:58:48.465Z,3.05
2023-01-21T18:01:17.423Z,3.03
2023-01-21T18:03:45.718Z,3.17
2023-01-21T18:06:20.984Z,2.90
2023-01-21T18:08:50.461Z,3.12
2023-01-21T18:11:19.233Z,3.18
2023-01-21T18:13:49.574Z,2.81
2023-01-21T18:16:17.625Z,3.14
2023-01-21T18:18:45.705Z,3.05
2023-01-21T18:21:20.267Z,3.06
2023-01-21T18:23:48.619Z,3.13
2023-01-21T18:26:24.298Z,3.07
2023-01-21T18:28:53.568Z,3.23
2023-01-21T18:31:22.651Z,3.26
2023-01-21T18:33:51.120Z,3.29
2023-01-21T18:36:19.006Z,3.20
2023-01-21T18:38:46.749Z,3.26
2023-01-21T18:41:15.105Z,3.35
2023-01-21T18:43:43.041Z,3.32
2023-01-21T18:46:14.152Z,3.34
2023-01-21T18:48:43.450Z,3.20
2023-01-21T18:51:11.454Z,3.33
2023-01-21T18:53:39.442Z,3.23
2023-01-21T18:56:14.117Z,3.42
2023-01-21T18:58:41.954Z,3.16
2023-01-21T19:01:21.783Z,3.24
2023-01-21T19:03:54.123Z,3.40
2023-01-21T19:06:23.710Z,3.38
2023-01-21T19:08:51.565Z,3.26
2023-01-21T19:11:20.034Z,3.40
2023-01-21T19:13:47.934Z,3.38
2023-01-21T19:16:18.084Z,3.22
2023-01-21T19:18:46.675Z,3.37
2023-01-21T19:21:15.902Z,3.39
2023-01-21T19:23:43.765Z,3.34
2023-01-21T19:26:14.717Z,3.42
2023-01-21T19:28:42.787Z,3.45
2023-01-21T19:31:10.777Z,3.40
2023-01-21T19:33:40.279Z,3.46
2023-01-21T19:36:15.916Z,3.38
2023-01-21T19:38:48.930Z,3.48
2023-01-21T19:41:16.872Z,3.34
2023-01-21T19:43:44.780Z,3.41
2023-01-21T19:46:13.310Z,3.26
2023-01-21T19:48:41.587Z,3.30
2023-01-21T19:51:09.709Z,3.36
2023-01-21T19:53:38.337Z,3.42
2023-01-21T19:56:08.672Z,3.49
2023-01-21T19:58:36.640Z,3.31
2023-01-21T20:01:05.335Z,3.28
2023-01-21T20:03:33.175Z,3.44
2023-01-21T20:06:03.487Z,3.47
2023-01-21T20:08:32.949Z,3.18
2023-01-21T20:11:00.756Z,3.21
2023-01-21T20:13:32.206Z,3.38
2023-01-21T20:16:03.845Z,3.34
2023-01-21T20:18:33.565Z,3.20
2023-01-21T20:21:04.512Z,3.24
2023-01-21T20:23:33.867Z,3.26
2023-01-21T20:26:02.099Z,3.22
2023-01-21T20:28:40.177Z,3.13
2023-01-21T20:31:09.007Z,3.24
2023-01-21T20:33:37.701Z,3.25
2023-01-21T20:36:08.516Z,3.06
2023-01-21T20:38:38.628Z,2.86
2023-01-21T20:41:07.291Z,2.83
2023-01-21T20:43:37.156Z,3.02
2023-01-21T20:46:08.653Z,2.96
2023-01-21T20:48:40.562Z,3.14
2023-01-21T20:51:08.999Z,2.85
2023-01-21T20:53:37.108Z,2.96
2023-01-21T20:56:18.301Z,2.82
2023-01-21T20:58:48.910Z,3.02
2023-01-21T21:01:19.568Z,3.00
2023-01-21T21:03:48.341Z,3.10
2023-01-21T21:06:17.975Z,2.77
2023-01-21T21:08:47.269Z,3.03
2023-01-21T21:11:16.320Z,2.97
2023-01-21T21:13:46.418Z,2.90
2023-01-21T21:16:20.716Z,3.04
2023-01-21T21:18:49.564Z,3.08
2023-01-21T21:21:20.552Z,3.07
2023-01-21T21:23:51.217Z,2.98
2023-01-21T21:26:24.358Z,3.01
2023-01-21T21:28:54.718Z,3.16
2023-01-21T21:31:25.349Z,3.08
2023-01-21T21:33:53.299Z,3.20
2023-01-21T21:36:23.671Z,3.20
2023-01-21T21:38:55.539Z,2.80
2023-01-21T21:41:43.816Z,3.13
2023-01-21T21:44:12.544Z,3.11
2023-01-21T21:46:59.814Z,2.96
2023-01-21T21:49:28.004Z,3.04
2023-01-21T21:51:56.888Z,2.98
2023-01-21T21:54:25.410Z,2.83
2023-01-21T21:56:53.403Z,2.85
2023-01-21T21:59:21.446Z,2.65
2023-01-21T22:01:51.118Z,2.53
2023-01-21T22:04:21.130Z,2.69
2023-01-21T22:06:48.967Z,2.63
2023-01-21T22:09:17.998Z,2.65
2023-01-21T22:11:45.869Z,2.43
2023-01-21T22:14:13.883Z,2.73
2023-01-21T22:16:42.531Z,2.49
2023-01-21T22:19:13.602Z,2.68
2023-01-21T22:21:41.555Z,2.71
2023-01-21T22:24:11.123Z,2.68
2023-01-21T22:26:39.319Z,2.69
2023-01-21T22:29:07.561Z,2.70
2023-01-21T22:31:36.087Z,2.50
2023-01-21T22:34:04.153Z,2.53
2023-01-21T22:36:33.714Z,2.42
2023-01-21T22:39:02.504Z,2.38
2023-01-21T22:41:30.495Z,2.32
2023-01-21T22:43:58.432Z,2.30
2023-01-21T22:46:29.665Z,2.37
2023-01-21T22:48:57.669Z,2.32
2023-01-21T22:51:25.783Z,2.13
2023-01-21T22:53:55.268Z,2.47
2023-01-21T22:56:44.762Z,2.30
2023-01-21T22:59:13.308Z,2.43
2023-01-21T23:01:41.563Z,2.51
2023-01-21T23:04:10.187Z,2.59
2023-01-21T23:06:38.861Z,2.53
2023-01-21T23:09:11.149Z,2.47
2023-01-21T23:11:39.826Z,2.47
2023-01-21T23:14:08.415Z,2.27
2023-01-21T23:16:36.236Z,2.27
2023-01-21T23:19:04.258Z,2.18
2023-01-21T23:21:32.207Z,2.32
2023-01-21T23:23:59.975Z,2.32
2023-01-21T23:26:29.779Z,2.27
2023-01-21T23:28:58.186Z,2.39
2023-01-21T23:31:26.716Z,2.41
2023-01-21T23:33:57.731Z,2.63
2023-01-21T23:36:25.920Z,2.60
2023-01-21T23:38:53.761Z,2.53
2023-01-21T23:41:22.297Z,2.27
2023-01-21T23:43:51.579Z,2.60
2023-01-21T23:46:20.492Z,2.40
2023-01-21T23:48:49.318Z,2.39
2023-01-21T23:51:18.433Z,2.46
2023-01-21T23:53:47.753Z,2.70
2023-01-21T23:56:18.441Z,2.68
2023-01-21T23:58:46.273Z,2.68
